sensor_id;sensor_type;location;lat;lon;timestamp;temperature;humidity
1702;DHT22;848;48.354;10.064;2023-05-10T00:02:07;14.40;99.90
1702;DHT22;848;48.354;10.064;2023-05-10T00:04:35;14.40;99.90
1702;DHT22;848;48.354;10.064;2023-05-10T00:07:02;14.40;99.90
1702;DHT22;848;48.354;10.064;2023-05-10T00:09:29;14.40;99.90
1702;DHT22;848;48.354;10.064;2023-05-10T00:11:56;14.40;99.90
1702;DHT22;848;48.354;10.064;2023-05-10T00:14:23;14.40;99.90
1702;DHT22;848;48.354;10.064;2023-05-10T00:16:50;14.40;99.90
1702;DHT22;848;48.354;10.064;2023-05-10T00:19:17;14.40;99.90
1702;DHT22;848;48.354;10.064;2023-05-10T00:21:45;14.40;99.90
1702;DHT22;848;48.354;10.064;2023-05-10T00:24:12;14.40;99.90
1702;DHT22;848;48.354;10.064;2023-05-10T00:26:39;14.40;99.90
1702;DHT22;848;48.354;10.064;2023-05-10T00:29:07;14.30;99.90
1702;DHT22;848;48.354;10.064;2023-05-10T00:31:34;14.40;99.90
1702;DHT22;848;48.354;10.064;2023-05-10T00:34:01;14.30;99.90
1702;DHT22;848;48.354;10.064;2023-05-10T00:36:28;14.40;99.90
1702;DHT22;848;48.354;10.064;2023-05-10T00:38:56;14.30;99.90
1702;DHT22;848;48.354;10.064;2023-05-10T00:41:23;14.30;99.90
1702;DHT22;848;48.354;10.064;2023-05-10T00:43:50;14.30;99.90
1702;DHT22;848;48.354;10.064;2023-05-10T00:46:17;14.20;99.90
1702;DHT22;848;48.354;10.064;2023-05-10T00:48:44;14.30;99.90
1702;DHT22;848;48.354;10.064;2023-05-10T00:51:12;14.20;99.90
1702;DHT22;848;48.354;10.064;2023-05-10T00:53:40;14.20;99.90
1702;DHT22;848;48.354;10.064;2023-05-10T00:56:09;14.20;99.90
1702;DHT22;848;48.354;10.064;2023-05-10T00:58:36;14.20;99.90
1702;DHT22;848;48.354;10.064;2023-05-10T01:01:03;14.20;99.90
1702;DHT22;848;48.354;10.064;2023-05-10T01:03:31;14.20;99.90
1702;DHT22;848;48.354;10.064;2023-05-10T01:05:58;14.50;99.90
1702;DHT22;848;48.354;10.064;2023-05-10T01:08:25;14.20;99.90
1702;DHT22;848;48.354;10.064;2023-05-10T01:10:52;14.20;99.90
1702;DHT22;848;48.354;10.064;2023-05-10T01:13:35;14.20;99.90
1702;DHT22;848;48.354;10.064;2023-05-10T01:16:03;14.20;99.90
1702;DHT22;848;48.354;10.064;2023-05-10T01:18:30;14.10;99.90
1702;DHT22;848;48.354;10.064;2023-05-10T01:21:07;14.20;99.90
1702;DHT22;848;48.354;10.064;2023-05-10T01:26:57;14.10;99.90
1702;DHT22;848;48.354;10.064;2023-05-10T01:32:36;14.10;99.90
1702;DHT22;848;48.354;10.064;2023-05-10T01:35:09;14.10;99.90
1702;DHT22;848;48.354;10.064;2023-05-10T01:37:42;14.20;99.90
1702;DHT22;848;48.354;10.064;2023-05-10T01:40:16;14.10;99.90
1702;DHT22;848;48.354;10.064;2023-05-10T01:42:49;14.10;99.90
1702;DHT22;848;48.354;10.064;2023-05-10T01:45:22;14.00;99.90
1702;DHT22;848;48.354;10.064;2023-05-10T01:48:02;14.10;99.90
1702;DHT22;848;48.354;10.064;2023-05-10T01:50:31;14.00;99.90
1702;DHT22;848;48.354;10.064;2023-05-10T01:53:00;14.00;99.90
1702;DHT22;848;48.354;10.064;2023-05-10T01:55:30;13.90;99.90
1702;DHT22;848;48.354;10.064;2023-05-10T01:58:04;13.90;99.90
1702;DHT22;848;48.354;10.064;2023-05-10T02:00:32;13.90;99.90
1702;DHT22;848;48.354;10.064;2023-05-10T02:03:05;13.90;99.90
1702;DHT22;848;48.354;10.064;2023-05-10T02:05:34;13.80;99.90
1702;DHT22;848;48.354;10.064;2023-05-10T02:08:05;13.80;99.90
1702;DHT22;848;48.354;10.064;2023-05-10T02:10:32;13.80;99.90
1702;DHT22;848;48.354;10.064;2023-05-10T02:13:02;13.80;99.90
1702;DHT22;848;48.354;10.064;2023-05-10T02:15:29;13.80;99.90
1702;DHT22;848;48.354;10.064;2023-05-10T02:17:58;13.80;99.90
1702;DHT22;848;48.354;10.064;2023-05-10T02:20:28;13.80;99.90
1702;DHT22;848;48.354;10.064;2023-05-10T02:22:57;13.80;99.90
1702;DHT22;848;48.354;10.064;2023-05-10T02:25:25;13.80;99.90
1702;DHT22;848;48.354;10.064;2023-05-10T02:27:55;13.70;99.90
1702;DHT22;848;48.354;10.064;2023-05-10T02:30:22;13.70;99.90
1702;DHT22;848;48.354;10.064;2023-05-10T02:32:50;13.70;99.90
1702;DHT22;848;48.354;10.064;2023-05-10T02:35:19;13.60;99.90
1702;DHT22;848;48.354;10.064;2023-05-10T02:37:48;13.60;99.90
1702;DHT22;848;48.354;10.064;2023-05-10T02:40:15;13.60;99.90
1702;DHT22;848;48.354;10.064;2023-05-10T02:42:44;13.50;99.90
1702;DHT22;848;48.354;10.064;2023-05-10T02:45:15;13.50;99.90
1702;DHT22;848;48.354;10.064;2023-05-10T02:47:43;13.50;99.90
1702;DHT22;848;48.354;10.064;2023-05-10T02:50:10;13.50;99.90
1702;DHT22;848;48.354;10.064;2023-05-10T02:52:40;13.50;99.90
1702;DHT22;848;48.354;10.064;2023-05-10T02:55:12;13.50;99.90
1702;DHT22;848;48.354;10.064;2023-05-10T02:57:43;13.40;99.90
1702;DHT22;848;48.354;10.064;2023-05-10T03:00:12;13.40;99.90
1702;DHT22;848;48.354;10.064;2023-05-10T03:02:39;13.40;99.90
1702;DHT22;848;48.354;10.064;2023-05-10T03:05:06;13.50;99.90
1702;DHT22;848;48.354;10.064;2023-05-10T03:07:33;13.50;99.90
1702;DHT22;848;48.354;10.064;2023-05-10T03:10:00;13.50;99.90
1702;DHT22;848;48.354;10.064;2023-05-10T03:12:38;13.50;99.90
1702;DHT22;848;48.354;10.064;2023-05-10T03:15:13;13.50;99.90
1702;DHT22;848;48.354;10.064;2023-05-10T03:17:46;13.40;99.90
1702;DHT22;848;48.354;10.064;2023-05-10T03:20:21;13.50;99.90
1702;DHT22;848;48.354;10.064;2023-05-10T03:22:52;13.50;99.90
1702;DHT22;848;48.354;10.064;2023-05-10T03:25:21;13.40;99.90
1702;DHT22;848;48.354;10.064;2023-05-10T03:27:52;13.40;99.90
1702;DHT22;848;48.354;10.064;2023-05-10T03:30:19;13.50;99.90
1702;DHT22;848;48.354;10.064;2023-05-10T03:32:46;13.40;99.90
1702;DHT22;848;48.354;10.064;2023-05-10T03:35:13;13.40;99.90
1702;DHT22;848;48.354;10.064;2023-05-10T03:37:40;13.50;99.90
1702;DHT22;848;48.354;10.064;2023-05-10T03:40:09;13.40;99.90
1702;DHT22;848;48.354;10.064;2023-05-10T03:42:36;13.50;99.90
1702;DHT22;848;48.354;10.064;2023-05-10T03:45:06;13.50;99.90
1702;DHT22;848;48.354;10.064;2023-05-10T03:47:33;13.40;99.90
1702;DHT22;848;48.354;10.064;2023-05-10T03:50:00;13.40;99.90
1702;DHT22;848;48.354;10.064;2023-05-10T03:52:27;13.30;99.90
1702;DHT22;848;48.354;10.064;2023-05-10T03:54:54;13.30;99.90
1702;DHT22;848;48.354;10.064;2023-05-10T03:57:21;13.40;99.90
1702;DHT22;848;48.354;10.064;2023-05-10T03:59:48;13.30;99.90
1702;DHT22;848;48.354;10.064;2023-05-10T04:02:16;13.30;99.90
1702;DHT22;848;48.354;10.064;2023-05-10T04:04:43;13.30;99.90
1702;DHT22;848;48.354;10.064;2023-05-10T04:07:10;13.30;99.90
1702;DHT22;848;48.354;10.064;2023-05-10T04:09:37;13.30;99.90
1702;DHT22;848;48.354;10.064;2023-05-10T04:12:04;13.30;99.90
1702;DHT22;848;48.354;10.064;2023-05-10T04:14:31;13.30;99.90
1702;DHT22;848;48.354;10.064;2023-05-10T04:16:58;13.30;99.90
1702;DHT22;848;48.354;10.064;2023-05-10T04:19:30;13.30;99.90
1702;DHT22;848;48.354;10.064;2023-05-10T04:21:58;13.30;99.90
1702;DHT22;848;48.354;10.064;2023-05-10T04:24:25;13.30;99.90
1702;DHT22;848;48.354;10.064;2023-05-10T04:26:52;13.30;99.90
1702;DHT22;848;48.354;10.064;2023-05-10T04:29:20;13.20;99.90
1702;DHT22;848;48.354;10.064;2023-05-10T04:31:47;13.20;99.90
1702;DHT22;848;48.354;10.064;2023-05-10T04:34:14;13.20;99.90
1702;DHT22;848;48.354;10.064;2023-05-10T04:36:43;13.20;99.90
1702;DHT22;848;48.354;10.064;2023-05-10T04:39:09;13.20;99.90
1702;DHT22;848;48.354;10.064;2023-05-10T04:41:37;13.20;99.90
1702;DHT22;848;48.354;10.064;2023-05-10T04:44:04;13.10;99.90
1702;DHT22;848;48.354;10.064;2023-05-10T04:46:31;13.20;99.90
1702;DHT22;848;48.354;10.064;2023-05-10T04:48:58;13.20;99.90
1702;DHT22;848;48.354;10.064;2023-05-10T04:51:25;13.30;99.90
1702;DHT22;848;48.354;10.064;2023-05-10T04:53:53;13.30;99.90
1702;DHT22;848;48.354;10.064;2023-05-10T04:56:20;13.30;99.90
1702;DHT22;848;48.354;10.064;2023-05-10T04:58:48;13.30;99.90
1702;DHT22;848;48.354;10.064;2023-05-10T05:01:15;13.30;99.90
1702;DHT22;848;48.354;10.064;2023-05-10T05:03:41;13.30;99.90
1702;DHT22;848;48.354;10.064;2023-05-10T05:06:09;13.30;99.90
1702;DHT22;848;48.354;10.064;2023-05-10T05:08:35;13.30;99.90
1702;DHT22;848;48.354;10.064;2023-05-10T05:11:04;13.30;99.90
1702;DHT22;848;48.354;10.064;2023-05-10T05:13:31;13.30;99.90
1702;DHT22;848;48.354;10.064;2023-05-10T05:16:00;13.30;99.90
1702;DHT22;848;48.354;10.064;2023-05-10T05:18:27;13.30;99.90
1702;DHT22;848;48.354;10.064;2023-05-10T05:20:54;13.30;99.90
1702;DHT22;848;48.354;10.064;2023-05-10T05:23:21;13.30;99.90
1702;DHT22;848;48.354;10.064;2023-05-10T05:25:51;13.30;99.90
1702;DHT22;848;48.354;10.064;2023-05-10T05:28:19;13.30;99.90
1702;DHT22;848;48.354;10.064;2023-05-10T05:30:46;13.30;99.90
1702;DHT22;848;48.354;10.064;2023-05-10T05:33:13;13.30;99.90
1702;DHT22;848;48.354;10.064;2023-05-10T05:35:43;13.30;99.90
1702;DHT22;848;48.354;10.064;2023-05-10T05:38:16;13.30;99.90
1702;DHT22;848;48.354;10.064;2023-05-10T05:40:42;13.40;99.90
1702;DHT22;848;48.354;10.064;2023-05-10T05:43:10;13.40;99.90
1702;DHT22;848;48.354;10.064;2023-05-10T05:45:39;13.40;99.90
1702;DHT22;848;48.354;10.064;2023-05-10T05:48:05;13.40;99.90
1702;DHT22;848;48.354;10.064;2023-05-10T05:50:32;13.40;99.90
1702;DHT22;848;48.354;10.064;2023-05-10T05:52:59;13.40;99.90
1702;DHT22;848;48.354;10.064;2023-05-10T05:55:26;13.40;99.90
1702;DHT22;848;48.354;10.064;2023-05-10T05:57:55;13.50;99.90
1702;DHT22;848;48.354;10.064;2023-05-10T06:00:22;13.50;99.90
1702;DHT22;848;48.354;10.064;2023-05-10T06:02:51;13.50;99.90
1702;DHT22;848;48.354;10.064;2023-05-10T06:05:18;13.50;99.90
1702;DHT22;848;48.354;10.064;2023-05-10T06:07:45;13.50;99.90
1702;DHT22;848;48.354;10.064;2023-05-10T06:10:12;13.50;99.90
1702;DHT22;848;48.354;10.064;2023-05-10T06:12:39;13.50;99.90
1702;DHT22;848;48.354;10.064;2023-05-10T06:15:08;13.50;99.90
1702;DHT22;848;48.354;10.064;2023-05-10T06:17:35;13.50;99.90
1702;DHT22;848;48.354;10.064;2023-05-10T06:20:04;13.60;99.90
1702;DHT22;848;48.354;10.064;2023-05-10T06:22:31;13.60;99.90
1702;DHT22;848;48.354;10.064;2023-05-10T06:24:58;13.60;99.90
1702;DHT22;848;48.354;10.064;2023-05-10T06:27:25;13.60;99.90
1702;DHT22;848;48.354;10.064;2023-05-10T06:29:52;13.70;99.90
1702;DHT22;848;48.354;10.064;2023-05-10T06:32:19;13.70;99.90
1702;DHT22;848;48.354;10.064;2023-05-10T06:34:46;13.70;99.90
1702;DHT22;848;48.354;10.064;2023-05-10T06:37:14;13.70;99.90
1702;DHT22;848;48.354;10.064;2023-05-10T06:39:41;13.70;99.90
1702;DHT22;848;48.354;10.064;2023-05-10T06:42:09;13.80;99.90
1702;DHT22;848;48.354;10.064;2023-05-10T06:44:36;13.80;99.90
1702;DHT22;848;48.354;10.064;2023-05-10T06:47:03;13.90;99.90
1702;DHT22;848;48.354;10.064;2023-05-10T06:49:30;13.90;99.90
1702;DHT22;848;48.354;10.064;2023-05-10T06:51:57;13.90;99.90
1702;DHT22;848;48.354;10.064;2023-05-10T06:54:26;13.90;99.90
1702;DHT22;848;48.354;10.064;2023-05-10T06:56:53;13.90;99.90
1702;DHT22;848;48.354;10.064;2023-05-10T06:59:20;13.90;99.90
1702;DHT22;848;48.354;10.064;2023-05-10T07:01:47;13.90;99.90
1702;DHT22;848;48.354;10.064;2023-05-10T07:04:14;13.90;99.90
1702;DHT22;848;48.354;10.064;2023-05-10T07:06:41;13.90;99.90
1702;DHT22;848;48.354;10.064;2023-05-10T07:09:07;13.90;99.90
1702;DHT22;848;48.354;10.064;2023-05-10T07:11:36;13.90;99.90
1702;DHT22;848;48.354;10.064;2023-05-10T07:33:47;14.20;99.90
1702;DHT22;848;48.354;10.064;2023-05-10T07:36:14;14.30;99.90
1702;DHT22;848;48.354;10.064;2023-05-10T07:38:41;14.30;99.90
1702;DHT22;848;48.354;10.064;2023-05-10T07:41:08;14.40;99.90
1702;DHT22;848;48.354;10.064;2023-05-10T07:43:35;14.50;99.90
1702;DHT22;848;48.354;10.064;2023-05-10T07:46:01;14.50;99.90
1702;DHT22;848;48.354;10.064;2023-05-10T07:48:28;14.50;99.90
1702;DHT22;848;48.354;10.064;2023-05-10T07:50:57;14.40;99.90
1702;DHT22;848;48.354;10.064;2023-05-10T07:53:25;14.40;99.90
1702;DHT22;848;48.354;10.064;2023-05-10T07:55:54;14.40;99.90
1702;DHT22;848;48.354;10.064;2023-05-10T07:58:23;14.40;99.90
1702;DHT22;848;48.354;10.064;2023-05-10T08:00:50;14.30;99.90
1702;DHT22;848;48.354;10.064;2023-05-10T08:03:17;14.30;99.90
1702;DHT22;848;48.354;10.064;2023-05-10T08:05:44;14.40;99.90
1702;DHT22;848;48.354;10.064;2023-05-10T08:08:12;14.40;99.90
1702;DHT22;848;48.354;10.064;2023-05-10T08:10:39;14.40;99.90
1702;DHT22;848;48.354;10.064;2023-05-10T08:13:06;14.50;99.90
1702;DHT22;848;48.354;10.064;2023-05-10T08:15:33;14.50;99.90
1702;DHT22;848;48.354;10.064;2023-05-10T08:18:00;14.50;99.90
1702;DHT22;848;48.354;10.064;2023-05-10T08:20:27;14.60;99.90
1702;DHT22;848;48.354;10.064;2023-05-10T08:22:54;14.50;99.90
1702;DHT22;848;48.354;10.064;2023-05-10T08:25:22;14.60;99.90
1702;DHT22;848;48.354;10.064;2023-05-10T08:27:49;14.70;99.90
1702;DHT22;848;48.354;10.064;2023-05-10T08:30:16;14.70;99.90
1702;DHT22;848;48.354;10.064;2023-05-10T08:32:43;14.80;99.90
1702;DHT22;848;48.354;10.064;2023-05-10T08:35:09;14.70;99.90
1702;DHT22;848;48.354;10.064;2023-05-10T08:37:36;14.70;99.90
1702;DHT22;848;48.354;10.064;2023-05-10T08:40:04;14.70;99.90
1702;DHT22;848;48.354;10.064;2023-05-10T08:42:34;14.70;99.90
1702;DHT22;848;48.354;10.064;2023-05-10T08:45:05;14.60;99.90
1702;DHT22;848;48.354;10.064;2023-05-10T08:47:33;14.60;99.90
1702;DHT22;848;48.354;10.064;2023-05-10T08:50:03;14.70;99.90
1702;DHT22;848;48.354;10.064;2023-05-10T08:52:30;14.80;99.90
1702;DHT22;848;48.354;10.064;2023-05-10T08:54:59;14.90;99.90
1702;DHT22;848;48.354;10.064;2023-05-10T08:57:26;15.00;99.90
1702;DHT22;848;48.354;10.064;2023-05-10T08:59:54;15.20;99.90
1702;DHT22;848;48.354;10.064;2023-05-10T09:02:23;15.30;99.90
1702;DHT22;848;48.354;10.064;2023-05-10T09:04:50;15.50;99.90
1702;DHT22;848;48.354;10.064;2023-05-10T09:07:17;15.50;99.90
1702;DHT22;848;48.354;10.064;2023-05-10T09:09:46;15.60;99.90
1702;DHT22;848;48.354;10.064;2023-05-10T09:12:13;15.60;99.90
1702;DHT22;848;48.354;10.064;2023-05-10T09:14:41;15.60;99.90
1702;DHT22;848;48.354;10.064;2023-05-10T09:17:10;15.60;99.90
1702;DHT22;848;48.354;10.064;2023-05-10T09:19:37;15.60;99.90
1702;DHT22;848;48.354;10.064;2023-05-10T09:22:04;15.60;99.90
1702;DHT22;848;48.354;10.064;2023-05-10T09:24:31;15.50;99.90
1702;DHT22;848;48.354;10.064;2023-05-10T09:26:58;15.60;99.90
1702;DHT22;848;48.354;10.064;2023-05-10T09:29:25;15.60;99.90
1702;DHT22;848;48.354;10.064;2023-05-10T09:31:52;15.60;99.90
1702;DHT22;848;48.354;10.064;2023-05-10T09:34:28;15.60;99.90
1702;DHT22;848;48.354;10.064;2023-05-10T09:36:57;15.60;99.90
1702;DHT22;848;48.354;10.064;2023-05-10T09:39:33;15.60;99.90
1702;DHT22;848;48.354;10.064;2023-05-10T09:42:01;15.60;99.90
1702;DHT22;848;48.354;10.064;2023-05-10T09:44:29;15.70;99.90
1702;DHT22;848;48.354;10.064;2023-05-10T09:46:56;15.60;99.90
1702;DHT22;848;48.354;10.064;2023-05-10T09:49:25;15.60;99.90
1702;DHT22;848;48.354;10.064;2023-05-10T09:52:02;15.60;99.90
1702;DHT22;848;48.354;10.064;2023-05-10T09:54:29;15.60;99.90
1702;DHT22;848;48.354;10.064;2023-05-10T09:56:56;15.60;99.90
1702;DHT22;848;48.354;10.064;2023-05-10T09:59:25;15.60;99.90
1702;DHT22;848;48.354;10.064;2023-05-10T10:01:53;15.60;99.90
1702;DHT22;848;48.354;10.064;2023-05-10T10:04:22;15.60;99.90
1702;DHT22;848;48.354;10.064;2023-05-10T10:07:02;15.60;99.90
1702;DHT22;848;48.354;10.064;2023-05-10T10:09:30;15.70;99.90
1702;DHT22;848;48.354;10.064;2023-05-10T10:11:57;15.70;99.90
1702;DHT22;848;48.354;10.064;2023-05-10T10:14:25;15.60;99.90
1702;DHT22;848;48.354;10.064;2023-05-10T10:16:53;15.60;99.90
1702;DHT22;848;48.354;10.064;2023-05-10T10:19:20;15.60;99.90
1702;DHT22;848;48.354;10.064;2023-05-10T10:21:47;15.60;99.90
1702;DHT22;848;48.354;10.064;2023-05-10T10:24:15;15.60;99.90
1702;DHT22;848;48.354;10.064;2023-05-10T10:26:43;15.70;99.90
1702;DHT22;848;48.354;10.064;2023-05-10T10:29:21;15.60;99.90
1702;DHT22;848;48.354;10.064;2023-05-10T10:31:57;15.60;99.90
1702;DHT22;848;48.354;10.064;2023-05-10T10:34:28;15.80;99.90
1702;DHT22;848;48.354;10.064;2023-05-10T10:36:56;15.90;99.90
1702;DHT22;848;48.354;10.064;2023-05-10T10:39:25;15.90;99.90
1702;DHT22;848;48.354;10.064;2023-05-10T10:41:54;16.00;99.90
1702;DHT22;848;48.354;10.064;2023-05-10T10:44:35;15.60;99.90
1702;DHT22;848;48.354;10.064;2023-05-10T10:47:21;15.90;99.90
1702;DHT22;848;48.354;10.064;2023-05-10T10:50:04;16.00;99.90
1702;DHT22;848;48.354;10.064;2023-05-10T10:52:32;15.90;99.90
1702;DHT22;848;48.354;10.064;2023-05-10T10:55:02;15.90;99.90
1702;DHT22;848;48.354;10.064;2023-05-10T10:57:43;15.80;99.90
1702;DHT22;848;48.354;10.064;2023-05-10T11:00:22;15.80;99.90
1702;DHT22;848;48.354;10.064;2023-05-10T11:02:50;15.80;99.90
1702;DHT22;848;48.354;10.064;2023-05-10T11:05:34;15.90;99.90
1702;DHT22;848;48.354;10.064;2023-05-10T11:08:09;16.00;99.90
1702;DHT22;848;48.354;10.064;2023-05-10T11:10:38;16.10;99.90
1702;DHT22;848;48.354;10.064;2023-05-10T11:13:06;16.10;99.90
1702;DHT22;848;48.354;10.064;2023-05-10T11:15:34;16.10;99.90
1702;DHT22;848;48.354;10.064;2023-05-10T11:18:16;16.20;99.90
1702;DHT22;848;48.354;10.064;2023-05-10T11:20:44;16.20;99.90
1702;DHT22;848;48.354;10.064;2023-05-10T11:23:13;16.20;99.90
1702;DHT22;848;48.354;10.064;2023-05-10T11:25:44;16.10;99.90
1702;DHT22;848;48.354;10.064;2023-05-10T11:28:11;16.00;99.90
1702;DHT22;848;48.354;10.064;2023-05-10T11:30:39;15.90;99.90
1702;DHT22;848;48.354;10.064;2023-05-10T11:33:07;15.90;99.90
1702;DHT22;848;48.354;10.064;2023-05-10T11:35:37;15.90;99.90
1702;DHT22;848;48.354;10.064;2023-05-10T11:38:06;15.90;99.90
1702;DHT22;848;48.354;10.064;2023-05-10T11:40:34;16.00;99.90
1702;DHT22;848;48.354;10.064;2023-05-10T11:43:02;16.00;99.90
1702;DHT22;848;48.354;10.064;2023-05-10T11:45:31;16.00;99.90
1702;DHT22;848;48.354;10.064;2023-05-10T11:47:59;16.10;99.90
1702;DHT22;848;48.354;10.064;2023-05-10T11:50:26;16.00;99.90
1702;DHT22;848;48.354;10.064;2023-05-10T11:52:54;16.00;99.90
1702;DHT22;848;48.354;10.064;2023-05-10T11:55:22;16.00;99.90
1702;DHT22;848;48.354;10.064;2023-05-10T11:57:52;16.00;99.90
1702;DHT22;848;48.354;10.064;2023-05-10T12:00:21;16.00;99.90
1702;DHT22;848;48.354;10.064;2023-05-10T12:02:48;15.90;99.90
1702;DHT22;848;48.354;10.064;2023-05-10T12:05:15;15.80;99.90
1702;DHT22;848;48.354;10.064;2023-05-10T12:07:42;15.70;99.90
1702;DHT22;848;48.354;10.064;2023-05-10T12:10:11;15.60;99.90
1702;DHT22;848;48.354;10.064;2023-05-10T12:12:40;15.60;99.90
1702;DHT22;848;48.354;10.064;2023-05-10T12:15:12;15.50;99.90
1702;DHT22;848;48.354;10.064;2023-05-10T12:17:40;15.40;99.90
1702;DHT22;848;48.354;10.064;2023-05-10T12:20:14;15.20;99.90
1702;DHT22;848;48.354;10.064;2023-05-10T12:22:44;15.10;99.90
1702;DHT22;848;48.354;10.064;2023-05-10T12:25:11;15.10;99.90
1702;DHT22;848;48.354;10.064;2023-05-10T12:27:38;15.00;99.90
1702;DHT22;848;48.354;10.064;2023-05-10T12:30:06;14.90;99.90
1702;DHT22;848;48.354;10.064;2023-05-10T12:32:41;14.90;99.90
1702;DHT22;848;48.354;10.064;2023-05-10T12:35:08;14.70;99.90
1702;DHT22;848;48.354;10.064;2023-05-10T12:37:36;14.70;99.90
1702;DHT22;848;48.354;10.064;2023-05-10T12:40:06;14.60;99.90
1702;DHT22;848;48.354;10.064;2023-05-10T12:42:35;14.50;99.90
1702;DHT22;848;48.354;10.064;2023-05-10T12:45:02;14.50;99.90
1702;DHT22;848;48.354;10.064;2023-05-10T12:47:29;14.60;99.90
1702;DHT22;848;48.354;10.064;2023-05-10T12:49:58;14.70;99.90
1702;DHT22;848;48.354;10.064;2023-05-10T12:52:26;14.70;99.90
1702;DHT22;848;48.354;10.064;2023-05-10T12:54:53;14.70;99.90
1702;DHT22;848;48.354;10.064;2023-05-10T12:57:20;14.70;99.90
1702;DHT22;848;48.354;10.064;2023-05-10T12:59:47;14.80;99.90
1702;DHT22;848;48.354;10.064;2023-05-10T13:02:14;14.80;99.90
1702;DHT22;848;48.354;10.064;2023-05-10T13:04:43;14.80;99.90
1702;DHT22;848;48.354;10.064;2023-05-10T13:07:11;14.80;99.90
1702;DHT22;848;48.354;10.064;2023-05-10T13:09:38;14.80;99.90
1702;DHT22;848;48.354;10.064;2023-05-10T13:12:05;14.90;99.90
1702;DHT22;848;48.354;10.064;2023-05-10T13:14:32;14.90;99.90
1702;DHT22;848;48.354;10.064;2023-05-10T13:16:59;15.00;99.90
1702;DHT22;848;48.354;10.064;2023-05-10T13:19:26;15.00;99.90
1702;DHT22;848;48.354;10.064;2023-05-10T13:21:53;15.10;99.90
1702;DHT22;848;48.354;10.064;2023-05-10T13:24:21;15.10;99.90
1702;DHT22;848;48.354;10.064;2023-05-10T13:26:48;15.00;99.90
1702;DHT22;848;48.354;10.064;2023-05-10T13:29:15;15.00;99.90
1702;DHT22;848;48.354;10.064;2023-05-10T13:31:43;15.00;99.90
1702;DHT22;848;48.354;10.064;2023-05-10T13:34:10;14.90;99.90
1702;DHT22;848;48.354;10.064;2023-05-10T13:36:37;14.90;99.90
1702;DHT22;848;48.354;10.064;2023-05-10T13:39:05;14.70;99.90
1702;DHT22;848;48.354;10.064;2023-05-10T13:41:33;14.20;99.90
1702;DHT22;848;48.354;10.064;2023-05-10T13:44:00;13.70;99.90
1702;DHT22;848;48.354;10.064;2023-05-10T13:46:26;13.30;99.90
1702;DHT22;848;48.354;10.064;2023-05-10T13:48:53;13.00;99.90
1702;DHT22;848;48.354;10.064;2023-05-10T13:51:20;12.90;99.90
1702;DHT22;848;48.354;10.064;2023-05-10T13:53:47;12.80;99.90
1702;DHT22;848;48.354;10.064;2023-05-10T13:56:14;12.80;99.90
1702;DHT22;848;48.354;10.064;2023-05-10T13:58:42;12.80;99.90
1702;DHT22;848;48.354;10.064;2023-05-10T14:01:09;12.80;99.90
1702;DHT22;848;48.354;10.064;2023-05-10T14:03:37;12.90;99.90
1702;DHT22;848;48.354;10.064;2023-05-10T14:06:04;12.90;99.90
1702;DHT22;848;48.354;10.064;2023-05-10T14:08:32;13.00;99.90
1702;DHT22;848;48.354;10.064;2023-05-10T14:11:00;13.00;99.90
1702;DHT22;848;48.354;10.064;2023-05-10T14:13:26;13.10;99.90
1702;DHT22;848;48.354;10.064;2023-05-10T14:15:55;13.20;99.90
1702;DHT22;848;48.354;10.064;2023-05-10T14:18:22;13.30;99.90
1702;DHT22;848;48.354;10.064;2023-05-10T14:20:49;13.40;99.90
1702;DHT22;848;48.354;10.064;2023-05-10T14:23:16;13.40;99.90
1702;DHT22;848;48.354;10.064;2023-05-10T14:25:45;13.40;99.90
1702;DHT22;848;48.354;10.064;2023-05-10T14:28:11;13.50;99.90
1702;DHT22;848;48.354;10.064;2023-05-10T14:30:38;13.50;99.90
1702;DHT22;848;48.354;10.064;2023-05-10T14:33:06;13.70;99.90
1702;DHT22;848;48.354;10.064;2023-05-10T14:35:34;13.70;99.90
1702;DHT22;848;48.354;10.064;2023-05-10T14:38:02;13.60;99.90
1702;DHT22;848;48.354;10.064;2023-05-10T14:40:29;13.70;99.90
1702;DHT22;848;48.354;10.064;2023-05-10T14:42:56;13.70;99.90
1702;DHT22;848;48.354;10.064;2023-05-10T14:45:23;13.70;99.90
1702;DHT22;848;48.354;10.064;2023-05-10T14:47:50;13.80;99.90
1702;DHT22;848;48.354;10.064;2023-05-10T14:50:18;13.90;99.90
1702;DHT22;848;48.354;10.064;2023-05-10T14:52:46;13.90;99.90
1702;DHT22;848;48.354;10.064;2023-05-10T14:55:13;13.90;99.90
1702;DHT22;848;48.354;10.064;2023-05-10T14:57:40;13.80;99.90
1702;DHT22;848;48.354;10.064;2023-05-10T15:00:07;13.80;99.90
1702;DHT22;848;48.354;10.064;2023-05-10T15:02:34;13.90;99.90
1702;DHT22;848;48.354;10.064;2023-05-10T15:05:02;13.80;99.90
1702;DHT22;848;48.354;10.064;2023-05-10T15:07:30;13.70;99.90
1702;DHT22;848;48.354;10.064;2023-05-10T15:09:57;13.70;99.90
1702;DHT22;848;48.354;10.064;2023-05-10T15:12:24;13.60;99.90
1702;DHT22;848;48.354;10.064;2023-05-10T15:14:51;13.60;99.90
1702;DHT22;848;48.354;10.064;2023-05-10T15:17:18;13.70;99.90
1702;DHT22;848;48.354;10.064;2023-05-10T15:19:44;13.80;99.90
1702;DHT22;848;48.354;10.064;2023-05-10T15:22:11;13.90;99.90
1702;DHT22;848;48.354;10.064;2023-05-10T15:24:39;13.90;99.90
1702;DHT22;848;48.354;10.064;2023-05-10T15:27:06;13.90;99.90
1702;DHT22;848;48.354;10.064;2023-05-10T15:29:34;13.90;99.90
1702;DHT22;848;48.354;10.064;2023-05-10T15:32:01;13.90;99.90
1702;DHT22;848;48.354;10.064;2023-05-10T15:34:28;13.90;99.90
1702;DHT22;848;48.354;10.064;2023-05-10T15:36:55;13.90;99.90
1702;DHT22;848;48.354;10.064;2023-05-10T15:39:22;13.90;99.90
1702;DHT22;848;48.354;10.064;2023-05-10T15:41:50;13.80;99.90
1702;DHT22;848;48.354;10.064;2023-05-10T15:44:39;13.70;99.90
1702;DHT22;848;48.354;10.064;2023-05-10T15:47:38;13.70;99.90
1702;DHT22;848;48.354;10.064;2023-05-10T15:50:13;13.70;99.90
1702;DHT22;848;48.354;10.064;2023-05-10T15:52:40;13.70;99.90
1702;DHT22;848;48.354;10.064;2023-05-10T15:55:15;13.70;99.90
1702;DHT22;848;48.354;10.064;2023-05-10T15:57:52;13.70;99.90
1702;DHT22;848;48.354;10.064;2023-05-10T16:00:19;13.60;99.90
1702;DHT22;848;48.354;10.064;2023-05-10T16:02:46;13.60;99.90
1702;DHT22;848;48.354;10.064;2023-05-10T16:05:13;13.60;99.90
1702;DHT22;848;48.354;10.064;2023-05-10T16:07:41;13.60;99.90
1702;DHT22;848;48.354;10.064;2023-05-10T16:10:09;13.60;99.90
1702;DHT22;848;48.354;10.064;2023-05-10T16:12:37;13.60;99.90
1702;DHT22;848;48.354;10.064;2023-05-10T16:15:08;13.60;99.90
1702;DHT22;848;48.354;10.064;2023-05-10T16:17:35;13.50;99.90
1702;DHT22;848;48.354;10.064;2023-05-10T16:20:02;13.60;99.90
1702;DHT22;848;48.354;10.064;2023-05-10T16:22:29;13.60;99.90
1702;DHT22;848;48.354;10.064;2023-05-10T16:24:56;13.60;99.90
1702;DHT22;848;48.354;10.064;2023-05-10T16:27:23;13.70;99.90
1702;DHT22;848;48.354;10.064;2023-05-10T16:29:53;13.70;99.90
1702;DHT22;848;48.354;10.064;2023-05-10T16:32:21;13.70;99.90
1702;DHT22;848;48.354;10.064;2023-05-10T16:34:48;13.70;99.90
1702;DHT22;848;48.354;10.064;2023-05-10T16:37:16;13.70;99.90